Pawelekville, Texas
Current Conditions -  °F | °C
As of 2:55 AM on Saturday 22 Nov 2014 (Local Time) from KPEZ Reporting Station
Broken Clouds Broken Clouds  
Wind Chill: 68°   Ceiling: 11000
Heat Index: 68°   Visibility: 10mi
Dew Point: 65°   Wind: 9mph
Humidity: 89%   Direction: 120°ESE
Pressure: 29.99"   Gusts: 16mph
Location:  28.933°N, 98.0642°W
Report Text: KPEZ 220855Z AUTO 12008G14KT 10SM SCT013 SCT075 BKN110 20/18 A2999 RMK AO2 T01990181
Loading
Personal Weather Stations






























Interactive Weather Map New forecast layout! Learn more

10-Day Weather Forecast

Advertisements
Track Severe Weather on mobile